Logo AVAMET
Benvolgut visitant, si us plau, ingressa Recuperar contrasenya
AVAMET paisatges

Inforatge Massamagrell

Dades diàries. Acumulats / Últims 30 dies disponibles

Data Temperatura (°C) Humitat rel. (%) Pressió rel. (hPa) Vent (km/h) Precipitació
Mínima Mitjana Màxima Amplitud
tèrmica
Mínima Mitjana Màxima Mínima Mitjana Màxima Predom. Mitjana Ràfega
màxima
Total
(mm)
Índex-n
Mínima Mitjana Màxima Mínima Mitjana Màxima n
0 a 1
P0 max
mm 5'
Dades mensuals acumulades fins l'últim dia disponible
06/2020 18,1 18,1 18,1 21,9 25,8 25,8 25,8 7,7 57 71 81 1.015 1.017 1.018   7,6 30,6 0,0
Dades anuals acumulades fins l'últim dia disponible
2020 1,1 10,6 19,8 14,9 9,6 19,6 31,9 30,8 0 74 98 999 1.021 1.036   7,7 86,9 198,8
Últims 30 dies disponibles
01-06-2020 18,1     21,9     25,8 7,7 57 71 81 1.015 1.017 1.018 SSE 7,6 30,6 0,0
31-05-2020 15,2     21,2     24,8 9,6 52 70 80 1.013 1.015 1.017 SSE 7,8 33,8 0,0
30-05-2020 15,7     21,1     24,4 8,7 56 69 78 1.015 1.017 1.018 ESE 8,5 33,8 0,0
29-05-2020 14,3     21,3     26,9 12,6 41 63 79 1.015 1.018 1.023 W 6,9 32,2 0,0
28-05-2020 17,1     21,3     25,2 8,1 41 72 85 1.022 1.025 1.028 ESE 8,5 32,2 0,0
27-05-2020 16,0     21,1     25,5 9,5 52 72 84 1.026 1.027 1.028 ENE 10,6 40,2 0,0
26-05-2020 16,8     21,2     25,0 8,2 55 74 87 1.025 1.027 1.028 ESE 6,1 25,7 0,0
25-05-2020 15,9     20,3     24,3 8,4 57 74 85 1.025 1.027 1.028 NE 6,0 22,5 0,0
24-05-2020 19,4     21,5     23,1 3,7 67 77 85 1.028 1.029 1.030 NE 10,9 30,6 0,0
23-05-2020 16,6     22,4     27,0 10,4 50 67 79 1.025 1.026 1.028 W 7,7 27,4 0,0
22-05-2020 18,1     22,7     27,0 8,9 52 68 92 1.021 1.024 1.026 NE 7,6 29,0 0,0
21-05-2020 15,6     22,3     28,3 12,7 45 67 84 1.019 1.020 1.022 W 6,1 27,4 0,0
20-05-2020 16,1     21,8     26,6 10,5 50 68 83 1.016 1.017 1.019 E 6,1 24,1 0,0
19-05-2020 15,2     21,1     28,4 13,2 39 69 84 1.016 1.019 1.022 WSW 6,6 27,4 0,0
18-05-2020 13,4     19,0     24,8 11,4 49 74 89 1.020 1.022 1.023 E 7,6 29,0 0,0
17-05-2020 14,5     18,7     22,4 7,9 52 72 87 1.020 1.021 1.023 E 5,1 29,0 0,0
16-05-2020 15,4     18,1     21,5 6,1 61 75 88 1.016 1.018 1.020 W 6,1 33,8 0,2
15-05-2020 12,1     16,7     20,0 7,9 61 76 86 1.011 1.014 1.017 E 6,0 30,6 0,4
14-05-2020 14,2     17,3     19,6 5,4 59 73 91 1.005 1.006 1.011 W 10,0 38,6 10,8 0,50 1,80
13-05-2020 13,9     19,6     25,8 11,9 36 62 84 1.004 1.006 1.008 WSW 10,8 37,0 0,0
12-05-2020 17,2     19,1     21,6 4,4 57 72 91 1.008 1.010 1.012 NE 10,1 40,2 1,2
11-05-2020 17,6     21,6     26,8 9,2 36 51 63 1.006 1.008 1.012 WSW 17,1 54,7 0,0
10-05-2020 16,6     20,4     25,7 9,1 32 64 93 1.004 1.006 1.011 WSW 13,0 51,5 1,6 0,42 0,40
09-05-2020 17,3     19,4     21,8 4,5 76 83 89 1.011 1.013 1.017 E 6,1 27,4 0,0
08-05-2020 15,5     19,6     22,2 6,7 66 77 87 1.015 1.018 1.020 NE 8,2 38,6 0,0
07-05-2020 15,6     20,1     24,2 8,6 50 75 87 1.019 1.020 1.021 NE 7,7 30,6 0,0
06-05-2020 15,5     20,1     23,2 7,7 68 80 89 1.016 1.018 1.020 E 5,6 32,2 0,0
05-05-2020 16,1     19,9     23,6 7,5 65 78 87 1.014 1.015 1.017 E 5,6 25,7 0,0
04-05-2020 15,0     19,3     22,0 7,0 76 81 87 1.015 1.017 1.019 E 5,8 27,4 0,0
03-05-2020 15,4     21,6     26,2 10,8 45 66 85 1.017 1.019 1.021 E 7,1 25,7 0,0
Últims 13 mesos disponibles
04/2020 7,2 12,1 18,3 15,7 15,5 19,7 26,9 19,7 49 77 90 1.006 1.017 1.027 E 6,6 48,3 34,2
03/2020 3,9 10,0 15,2 13,9 11,9 17,7 25,5 21,6 44 71 92 1.007 1.018 1.028 NE 10,0 86,9 65,4
02/2020 4,4 8,5 11,8 13,6 14,4 19,9 26,3 21,9 49 73 89 1.014 1.026 1.034 W 5,9 56,3 0,4
01/2020 1,1 5,9 14,1 10,3 9,6 15,8 22,9 21,8 63 77 95 1.017 1.026 1.033 W 7,9 85,3 84,6
12/2019 3,7 9,4 16,7 13,3 13,2 18,1 24,8 21,1 52 72 91 1.002 1.020 1.034 WSW 9,1 85,3 54,8
11/2019 4,7 11,1 20,7 15,4 15,9 20,1 28,8 24,1 42 57 82 999 1.011 1.019 WSW 10,2 57,9 1,4
10/2019 9,9 15,1 20,5 19,7 17,4 24,7 29,4 19,5 48 72 86 1.008 1.018 1.023 W 6,0 38,9 23,6
09/2019 15,5 19,6 23,2 23,4 21,4 27,1 35,3 19,8 47 74 84 1.011 1.019 1.026 S 8,1 68,5 76,8
08/2019 17,4 21,7 26,0 25,8 26,5 29,8 42,2 24,8 44 72 82 1.013 1.018 1.022 S 8,1 61,1 5,0
07/2019 19,8 21,7 24,1 26,1 27,6 30,0 37,6 17,8 53 69 81 1.006 1.015 1.023 SSE 7,8 50,0 14,0
06/2019 11,4 17,3 21,6 22,0 20,4 25,9 34,1 22,7 48 68 82 1.010 1.017 1.023 SE 8,5 59,6 0,0
05/2019 8,5 13,8 19,1 18,2 17,8 22,3 33,1 24,6 47 69 85 1.006 1.016 1.026 SSE 7,9 55,6 26,6
04/2019 7,4 10,9 14,3 15,1 15,5 19,7 30,1 22,7 46 67 95 1.000 1.014 1.026 SSO 10,3 70,9 43,2
Tots els anys disponibles
2019 0,5 13,1 26,0 17,7 9,6 22,4 42,2 41,7 33 68 95 995 1.018 1.035 SSO 8,0 85,3 258,6
Temperatura (°C)
Humitat relativa (%)
Velocitat del vent i ràfega màxima (km/h)
Direcció del vent (°)
Pressió (hPa)
Precipitació (mm)
Nota sobre les dades: s'avisa a l'usuari de la provisionalitat i no oficialitat d'aquestes dades
Logo AVAMET blanc
Web allotjada a Sollutia
Llicència de Creative CommonsLa web d'AVAMET i els seus continguts estan subjectes a una llicència de
Reconeixement - No Comercial - Compartir igual
Últimes estacions: Xodos - la Vega (Soci), la Vall d'Alba - Centre (Ajuntament soci), Chera (Ajuntament soci) - - -